sensor_id;sensor_type;location;lat;lon;timestamp;temperature;humidity
9437;DHT22;4757;59.334;18.034;2023-02-21T01:26:34;-0.90;99.90
9437;DHT22;4757;59.334;18.034;2023-02-21T01:29:20;-0.90;99.90
9437;DHT22;4757;59.334;18.034;2023-02-21T01:32:05;-0.90;99.90
9437;DHT22;4757;59.334;18.034;2023-02-21T01:34:51;-1.10;99.90
9437;DHT22;4757;59.334;18.034;2023-02-21T01:37:39;-1.10;99.90
9437;DHT22;4757;59.334;18.034;2023-02-21T01:40:25;-1.00;99.90
9437;DHT22;4757;59.334;18.034;2023-02-21T01:43:19;-0.90;99.90
9437;DHT22;4757;59.334;18.034;2023-02-21T01:46:10;-0.90;99.90
9437;DHT22;4757;59.334;18.034;2023-02-21T01:48:57;-1.00;99.90
9437;DHT22;4757;59.334;18.034;2023-02-21T01:51:44;-1.00;99.90
9437;DHT22;4757;59.334;18.034;2023-02-21T01:54:33;-1.00;99.90
9437;DHT22;4757;59.334;18.034;2023-02-21T01:57:21;-1.00;99.90
9437;DHT22;4757;59.334;18.034;2023-02-21T02:00:09;-1.00;99.90
9437;DHT22;4757;59.334;18.034;2023-02-21T02:03:03;-1.00;99.90
9437;DHT22;4757;59.334;18.034;2023-02-21T02:05:58;-0.90;99.90
9437;DHT22;4757;59.334;18.034;2023-02-21T02:08:45;-1.10;99.90
9437;DHT22;4757;59.334;18.034;2023-02-21T02:23:20;-1.00;99.90
9437;DHT22;4757;59.334;18.034;2023-02-21T02:37:30;-1.20;99.90
9437;DHT22;4757;59.334;18.034;2023-02-21T02:40:29;-1.10;99.90
9437;DHT22;4757;59.334;18.034;2023-02-21T02:45:35;-1.20;99.90
9437;DHT22;4757;59.334;18.034;2023-02-21T02:50:40;-1.20;99.90
9437;DHT22;4757;59.334;18.034;2023-02-21T02:53:11;-1.20;99.90
9437;DHT22;4757;59.334;18.034;2023-02-21T02:58:15;-1.30;99.90
9437;DHT22;4757;59.334;18.034;2023-02-21T03:00:47;-1.30;99.90
9437;DHT22;4757;59.334;18.034;2023-02-21T03:03:33;-1.30;99.90
9437;DHT22;4757;59.334;18.034;2023-02-21T03:08:53;-1.30;99.90
9437;DHT22;4757;59.334;18.034;2023-02-21T03:11:24;-1.30;99.90
9437;DHT22;4757;59.334;18.034;2023-02-21T03:14:13;-1.40;99.90
9437;DHT22;4757;59.334;18.034;2023-02-21T03:16:50;-1.30;99.90
9437;DHT22;4757;59.334;18.034;2023-02-21T03:19:39;-1.40;99.90
9437;DHT22;4757;59.334;18.034;2023-02-21T03:22:12;-1.40;99.90
9437;DHT22;4757;59.334;18.034;2023-02-21T03:24:42;-1.30;99.90
9437;DHT22;4757;59.334;18.034;2023-02-21T03:27:11;-1.30;99.90
9437;DHT22;4757;59.334;18.034;2023-02-21T03:29:40;-1.20;99.90
9437;DHT22;4757;59.334;18.034;2023-02-21T03:32:11;-1.10;99.90
9437;DHT22;4757;59.334;18.034;2023-02-21T03:34:41;-1.10;99.90
9437;DHT22;4757;59.334;18.034;2023-02-21T03:37:17;-1.00;99.90
9437;DHT22;4757;59.334;18.034;2023-02-21T03:39:44;-1.10;99.90
9437;DHT22;4757;59.334;18.034;2023-02-21T03:42:11;-1.00;99.90
9437;DHT22;4757;59.334;18.034;2023-02-21T03:44:38;-1.00;99.90
9437;DHT22;4757;59.334;18.034;2023-02-21T03:47:05;-1.10;99.90
9437;DHT22;4757;59.334;18.034;2023-02-21T03:49:32;-1.10;99.90
9437;DHT22;4757;59.334;18.034;2023-02-21T03:51:59;-1.10;99.90
9437;DHT22;4757;59.334;18.034;2023-02-21T03:54:26;-1.20;99.90
9437;DHT22;4757;59.334;18.034;2023-02-21T03:56:53;-1.20;99.90
9437;DHT22;4757;59.334;18.034;2023-02-21T03:59:20;-1.10;99.90
9437;DHT22;4757;59.334;18.034;2023-02-21T04:01:48;-1.10;99.90
9437;DHT22;4757;59.334;18.034;2023-02-21T04:04:15;-1.00;99.90
9437;DHT22;4757;59.334;18.034;2023-02-21T04:06:42;-1.00;99.90
9437;DHT22;4757;59.334;18.034;2023-02-21T04:09:09;-1.00;99.90
9437;DHT22;4757;59.334;18.034;2023-02-21T04:11:36;-1.00;99.90
9437;DHT22;4757;59.334;18.034;2023-02-21T04:14:03;-1.00;99.90
9437;DHT22;4757;59.334;18.034;2023-02-21T04:16:30;-1.00;99.90
9437;DHT22;4757;59.334;18.034;2023-02-21T04:18:57;-0.90;99.90
9437;DHT22;4757;59.334;18.034;2023-02-21T04:21:24;-1.00;99.90
9437;DHT22;4757;59.334;18.034;2023-02-21T04:23:51;-0.90;99.90
9437;DHT22;4757;59.334;18.034;2023-02-21T04:26:18;-0.90;99.90
9437;DHT22;4757;59.334;18.034;2023-02-21T04:28:45;-0.90;99.90
9437;DHT22;4757;59.334;18.034;2023-02-21T04:31:14;-0.90;99.90
9437;DHT22;4757;59.334;18.034;2023-02-21T04:33:44;-0.90;99.90
9437;DHT22;4757;59.334;18.034;2023-02-21T04:36:11;-0.80;99.90
9437;DHT22;4757;59.334;18.034;2023-02-21T04:38:38;-0.80;99.90
9437;DHT22;4757;59.334;18.034;2023-02-21T04:41:05;-1.00;99.90
9437;DHT22;4757;59.334;18.034;2023-02-21T04:43:32;-1.00;99.90
9437;DHT22;4757;59.334;18.034;2023-02-21T04:46:00;-0.90;99.90
9437;DHT22;4757;59.334;18.034;2023-02-21T04:48:27;-1.00;99.90
9437;DHT22;4757;59.334;18.034;2023-02-21T04:50:54;-1.00;99.90
9437;DHT22;4757;59.334;18.034;2023-02-21T04:53:27;-1.00;99.90
9437;DHT22;4757;59.334;18.034;2023-02-21T04:55:54;-0.90;99.90
9437;DHT22;4757;59.334;18.034;2023-02-21T04:58:21;-0.90;99.90
9437;DHT22;4757;59.334;18.034;2023-02-21T05:00:48;-0.80;99.90
9437;DHT22;4757;59.334;18.034;2023-02-21T05:03:15;-0.80;99.90
9437;DHT22;4757;59.334;18.034;2023-02-21T05:05:42;-0.80;99.90
9437;DHT22;4757;59.334;18.034;2023-02-21T05:08:09;-0.80;99.90
9437;DHT22;4757;59.334;18.034;2023-02-21T05:10:36;-0.70;99.90
9437;DHT22;4757;59.334;18.034;2023-02-21T05:13:12;-0.70;99.90
9437;DHT22;4757;59.334;18.034;2023-02-21T05:15:40;-0.70;99.90
9437;DHT22;4757;59.334;18.034;2023-02-21T05:18:07;-0.60;99.90
9437;DHT22;4757;59.334;18.034;2023-02-21T05:20:34;-0.60;99.90
9437;DHT22;4757;59.334;18.034;2023-02-21T05:23:01;-0.60;99.90
9437;DHT22;4757;59.334;18.034;2023-02-21T05:25:39;-0.70;99.90
9437;DHT22;4757;59.334;18.034;2023-02-21T05:28:06;-0.70;99.90
9437;DHT22;4757;59.334;18.034;2023-02-21T05:30:33;-0.70;99.90
9437;DHT22;4757;59.334;18.034;2023-02-21T05:33:00;-0.80;99.90
9437;DHT22;4757;59.334;18.034;2023-02-21T05:35:27;-0.70;99.90
9437;DHT22;4757;59.334;18.034;2023-02-21T05:37:54;-0.60;99.90
9437;DHT22;4757;59.334;18.034;2023-02-21T05:40:21;-0.60;99.90
9437;DHT22;4757;59.334;18.034;2023-02-21T05:42:49;-0.60;99.90
9437;DHT22;4757;59.334;18.034;2023-02-21T05:45:16;-0.60;99.90
9437;DHT22;4757;59.334;18.034;2023-02-21T05:47:44;-0.60;99.90
9437;DHT22;4757;59.334;18.034;2023-02-21T05:50:11;-0.50;99.90
9437;DHT22;4757;59.334;18.034;2023-02-21T05:52:38;-0.50;99.90
9437;DHT22;4757;59.334;18.034;2023-02-21T05:55:05;-0.50;99.90
9437;DHT22;4757;59.334;18.034;2023-02-21T05:57:37;-0.50;99.90
9437;DHT22;4757;59.334;18.034;2023-02-21T06:00:05;-0.50;99.90
9437;DHT22;4757;59.334;18.034;2023-02-21T06:02:32;-0.50;99.90
9437;DHT22;4757;59.334;18.034;2023-02-21T06:04:59;-0.50;99.90
9437;DHT22;4757;59.334;18.034;2023-02-21T06:07:26;-0.50;99.90
9437;DHT22;4757;59.334;18.034;2023-02-21T06:09:53;-0.50;99.90
9437;DHT22;4757;59.334;18.034;2023-02-21T06:12:20;-0.50;99.90
9437;DHT22;4757;59.334;18.034;2023-02-21T06:14:47;-0.40;99.90
9437;DHT22;4757;59.334;18.034;2023-02-21T06:17:15;-0.30;99.90
9437;DHT22;4757;59.334;18.034;2023-02-21T06:19:42;-0.40;99.90
9437;DHT22;4757;59.334;18.034;2023-02-21T06:22:09;-0.40;99.90
9437;DHT22;4757;59.334;18.034;2023-02-21T06:24:36;-0.30;99.90
9437;DHT22;4757;59.334;18.034;2023-02-21T06:27:03;-0.20;99.90
9437;DHT22;4757;59.334;18.034;2023-02-21T06:29:30;-0.20;99.90
9437;DHT22;4757;59.334;18.034;2023-02-21T06:31:59;-0.10;99.90
9437;DHT22;4757;59.334;18.034;2023-02-21T06:34:27;-0.20;99.90
9437;DHT22;4757;59.334;18.034;2023-02-21T06:36:54;-0.20;99.90
9437;DHT22;4757;59.334;18.034;2023-02-21T06:39:22;-0.10;99.90
9437;DHT22;4757;59.334;18.034;2023-02-21T06:41:50;0.00;99.90
9437;DHT22;4757;59.334;18.034;2023-02-21T06:44:17;-0.10;99.90
9437;DHT22;4757;59.334;18.034;2023-02-21T06:46:44;0.00;99.90
9437;DHT22;4757;59.334;18.034;2023-02-21T06:49:13;-0.10;99.90
9437;DHT22;4757;59.334;18.034;2023-02-21T06:51:41;-0.10;99.90
9437;DHT22;4757;59.334;18.034;2023-02-21T06:54:09;-0.10;99.90
9437;DHT22;4757;59.334;18.034;2023-02-21T06:56:36;0.00;99.90
9437;DHT22;4757;59.334;18.034;2023-02-21T06:59:04;0.00;99.90
9437;DHT22;4757;59.334;18.034;2023-02-21T07:01:34;0.00;99.90
9437;DHT22;4757;59.334;18.034;2023-02-21T07:04:02;0.00;99.90
9437;DHT22;4757;59.334;18.034;2023-02-21T07:06:30;0.10;99.90
9437;DHT22;4757;59.334;18.034;2023-02-21T07:08:59;0.00;99.90
9437;DHT22;4757;59.334;18.034;2023-02-21T07:11:33;0.00;99.90
9437;DHT22;4757;59.334;18.034;2023-02-21T07:14:01;0.10;99.90
9437;DHT22;4757;59.334;18.034;2023-02-21T07:16:29;0.10;99.90
9437;DHT22;4757;59.334;18.034;2023-02-21T07:18:57;0.10;99.90
9437;DHT22;4757;59.334;18.034;2023-02-21T07:21:25;0.00;99.90
9437;DHT22;4757;59.334;18.034;2023-02-21T07:23:53;0.00;99.90
9437;DHT22;4757;59.334;18.034;2023-02-21T07:26:21;-0.10;99.90
9437;DHT22;4757;59.334;18.034;2023-02-21T07:28:49;-0.10;99.90
9437;DHT22;4757;59.334;18.034;2023-02-21T07:31:17;-0.20;99.90
9437;DHT22;4757;59.334;18.034;2023-02-21T07:33:46;-0.10;99.90
9437;DHT22;4757;59.334;18.034;2023-02-21T07:36:13;-0.20;99.90
9437;DHT22;4757;59.334;18.034;2023-02-21T07:38:41;-0.10;99.90
9437;DHT22;4757;59.334;18.034;2023-02-21T07:41:08;-0.20;99.90
9437;DHT22;4757;59.334;18.034;2023-02-21T07:43:35;-0.20;99.90
9437;DHT22;4757;59.334;18.034;2023-02-21T07:46:12;-0.20;99.90
9437;DHT22;4757;59.334;18.034;2023-02-21T07:48:40;-0.20;99.90
9437;DHT22;4757;59.334;18.034;2023-02-21T07:51:08;-0.20;99.90
9437;DHT22;4757;59.334;18.034;2023-02-21T07:53:35;-0.20;99.90
9437;DHT22;4757;59.334;18.034;2023-02-21T07:56:03;-0.10;99.90
9437;DHT22;4757;59.334;18.034;2023-02-21T07:58:30;0.00;99.90
9437;DHT22;4757;59.334;18.034;2023-02-21T08:00:58;0.00;99.90
9437;DHT22;4757;59.334;18.034;2023-02-21T08:03:25;0.00;99.90
9437;DHT22;4757;59.334;18.034;2023-02-21T08:05:52;0.00;99.90
9437;DHT22;4757;59.334;18.034;2023-02-21T08:08:19;0.00;99.90
9437;DHT22;4757;59.334;18.034;2023-02-21T08:10:48;0.10;99.90
9437;DHT22;4757;59.334;18.034;2023-02-21T08:13:15;0.20;99.90
9437;DHT22;4757;59.334;18.034;2023-02-21T08:15:42;0.20;99.90
9437;DHT22;4757;59.334;18.034;2023-02-21T08:18:21;0.10;99.90
9437;DHT22;4757;59.334;18.034;2023-02-21T08:20:50;0.10;99.90
9437;DHT22;4757;59.334;18.034;2023-02-21T08:23:19;0.10;99.90
9437;DHT22;4757;59.334;18.034;2023-02-21T08:25:46;0.10;99.90
9437;DHT22;4757;59.334;18.034;2023-02-21T08:28:14;0.00;99.90
9437;DHT22;4757;59.334;18.034;2023-02-21T08:30:45;0.10;99.90
9437;DHT22;4757;59.334;18.034;2023-02-21T08:33:12;0.10;99.90
9437;DHT22;4757;59.334;18.034;2023-02-21T08:35:39;0.20;99.90
9437;DHT22;4757;59.334;18.034;2023-02-21T08:38:07;0.30;99.90
9437;DHT22;4757;59.334;18.034;2023-02-21T08:40:36;0.30;99.90
9437;DHT22;4757;59.334;18.034;2023-02-21T08:43:03;0.40;99.90
9437;DHT22;4757;59.334;18.034;2023-02-21T08:45:32;0.30;99.90
9437;DHT22;4757;59.334;18.034;2023-02-21T08:47:59;0.30;99.90
9437;DHT22;4757;59.334;18.034;2023-02-21T08:50:27;0.30;99.90
9437;DHT22;4757;59.334;18.034;2023-02-21T08:52:55;0.30;99.90
9437;DHT22;4757;59.334;18.034;2023-02-21T08:55:22;0.30;99.90
9437;DHT22;4757;59.334;18.034;2023-02-21T08:57:52;0.30;99.90
9437;DHT22;4757;59.334;18.034;2023-02-21T09:00:22;0.30;99.90
9437;DHT22;4757;59.334;18.034;2023-02-21T09:02:50;0.30;99.90
9437;DHT22;4757;59.334;18.034;2023-02-21T09:05:24;0.40;99.90
9437;DHT22;4757;59.334;18.034;2023-02-21T09:07:54;0.50;99.90
9437;DHT22;4757;59.334;18.034;2023-02-21T09:10:31;0.60;99.90
9437;DHT22;4757;59.334;18.034;2023-02-21T09:13:01;0.50;99.90
9437;DHT22;4757;59.334;18.034;2023-02-21T09:15:29;0.40;99.90
9437;DHT22;4757;59.334;18.034;2023-02-21T09:17:56;0.40;99.90
9437;DHT22;4757;59.334;18.034;2023-02-21T09:20:24;0.40;99.90
9437;DHT22;4757;59.334;18.034;2023-02-21T09:22:52;0.30;99.90
9437;DHT22;4757;59.334;18.034;2023-02-21T09:25:22;0.20;99.90
9437;DHT22;4757;59.334;18.034;2023-02-21T09:27:51;0.20;99.90
9437;DHT22;4757;59.334;18.034;2023-02-21T09:30:22;0.30;99.90
9437;DHT22;4757;59.334;18.034;2023-02-21T09:32:50;0.20;99.90
9437;DHT22;4757;59.334;18.034;2023-02-21T09:35:17;0.20;99.90
9437;DHT22;4757;59.334;18.034;2023-02-21T09:37:45;0.20;99.90
9437;DHT22;4757;59.334;18.034;2023-02-21T09:40:35;0.30;99.90
9437;DHT22;4757;59.334;18.034;2023-02-21T09:43:04;0.30;99.90
9437;DHT22;4757;59.334;18.034;2023-02-21T09:45:34;0.30;99.90
9437;DHT22;4757;59.334;18.034;2023-02-21T09:48:19;0.40;99.90
9437;DHT22;4757;59.334;18.034;2023-02-21T09:50:50;0.40;99.90
9437;DHT22;4757;59.334;18.034;2023-02-21T09:53:30;0.40;99.90
9437;DHT22;4757;59.334;18.034;2023-02-21T09:56:03;0.40;99.90
9437;DHT22;4757;59.334;18.034;2023-02-21T09:58:32;0.40;99.90
9437;DHT22;4757;59.334;18.034;2023-02-21T10:01:05;0.30;99.90
9437;DHT22;4757;59.334;18.034;2023-02-21T10:03:48;0.40;99.90
9437;DHT22;4757;59.334;18.034;2023-02-21T10:06:29;0.40;99.90
9437;DHT22;4757;59.334;18.034;2023-02-21T10:09:19;0.40;99.90
9437;DHT22;4757;59.334;18.034;2023-02-21T10:12:53;0.40;99.90
9437;DHT22;4757;59.334;18.034;2023-02-21T10:20:59;0.30;99.90
9437;DHT22;4757;59.334;18.034;2023-02-21T10:23:37;0.40;99.90
9437;DHT22;4757;59.334;18.034;2023-02-21T10:26:09;0.60;99.90
9437;DHT22;4757;59.334;18.034;2023-02-21T10:28:37;0.70;99.90
9437;DHT22;4757;59.334;18.034;2023-02-21T10:31:12;0.60;99.90
9437;DHT22;4757;59.334;18.034;2023-02-21T10:33:41;0.50;99.90
9437;DHT22;4757;59.334;18.034;2023-02-21T10:36:20;0.40;99.90
9437;DHT22;4757;59.334;18.034;2023-02-21T10:38:55;0.50;99.90
9437;DHT22;4757;59.334;18.034;2023-02-21T10:41:27;0.50;99.90
9437;DHT22;4757;59.334;18.034;2023-02-21T10:44:12;0.40;99.90
9437;DHT22;4757;59.334;18.034;2023-02-21T10:47:03;0.50;99.90
9437;DHT22;4757;59.334;18.034;2023-02-21T10:50:00;0.60;99.90
9437;DHT22;4757;59.334;18.034;2023-02-21T10:52:36;0.70;99.90
9437;DHT22;4757;59.334;18.034;2023-02-21T10:55:16;0.70;99.90
9437;DHT22;4757;59.334;18.034;2023-02-21T10:58:06;0.50;99.90
9437;DHT22;4757;59.334;18.034;2023-02-21T11:00:37;0.70;99.90
9437;DHT22;4757;59.334;18.034;2023-02-21T11:03:12;0.60;99.90
9437;DHT22;4757;59.334;18.034;2023-02-21T11:05:51;0.60;99.90
9437;DHT22;4757;59.334;18.034;2023-02-21T11:08:40;0.60;99.90
9437;DHT22;4757;59.334;18.034;2023-02-21T11:11:08;0.50;99.90
9437;DHT22;4757;59.334;18.034;2023-02-21T11:13:40;0.60;99.90
9437;DHT22;4757;59.334;18.034;2023-02-21T11:16:20;0.80;99.90
9437;DHT22;4757;59.334;18.034;2023-02-21T11:19:06;0.70;99.90
9437;DHT22;4757;59.334;18.034;2023-02-21T11:21:40;0.70;99.90
9437;DHT22;4757;59.334;18.034;2023-02-21T11:24:16;0.80;99.90
9437;DHT22;4757;59.334;18.034;2023-02-21T11:26:51;0.60;99.90
9437;DHT22;4757;59.334;18.034;2023-02-21T11:29:21;0.70;99.90
9437;DHT22;4757;59.334;18.034;2023-02-21T11:31:54;0.70;99.90
9437;DHT22;4757;59.334;18.034;2023-02-21T11:34:28;0.70;99.90
9437;DHT22;4757;59.334;18.034;2023-02-21T11:37:01;0.70;99.90
9437;DHT22;4757;59.334;18.034;2023-02-21T11:39:33;0.50;99.90
9437;DHT22;4757;59.334;18.034;2023-02-21T11:42:29;0.40;99.90
9437;DHT22;4757;59.334;18.034;2023-02-21T11:45:19;0.50;99.90
9437;DHT22;4757;59.334;18.034;2023-02-21T11:48:02;0.50;99.90
9437;DHT22;4757;59.334;18.034;2023-02-21T11:50:38;0.40;99.90
9437;DHT22;4757;59.334;18.034;2023-02-21T11:53:17;0.60;99.90
9437;DHT22;4757;59.334;18.034;2023-02-21T11:58:59;0.60;99.90
9437;DHT22;4757;59.334;18.034;2023-02-21T12:01:58;0.40;99.90
9437;DHT22;4757;59.334;18.034;2023-02-21T12:04:43;0.40;99.90
9437;DHT22;4757;59.334;18.034;2023-02-21T12:15:55;0.80;99.90
9437;DHT22;4757;59.334;18.034;2023-02-21T12:21:04;0.80;99.90
9437;DHT22;4757;59.334;18.034;2023-02-21T12:29:01;0.70;99.90
9437;DHT22;4757;59.334;18.034;2023-02-21T12:46:39;0.70;99.90
9437;DHT22;4757;59.334;18.034;2023-02-21T12:51:54;0.60;99.90
9437;DHT22;4757;59.334;18.034;2023-02-21T12:54:37;0.70;99.90
9437;DHT22;4757;59.334;18.034;2023-02-21T12:57:12;0.60;99.90
9437;DHT22;4757;59.334;18.034;2023-02-21T12:59:48;0.40;99.90
9437;DHT22;4757;59.334;18.034;2023-02-21T13:02:37;0.50;99.90
9437;DHT22;4757;59.334;18.034;2023-02-21T13:05:30;0.50;99.90
9437;DHT22;4757;59.334;18.034;2023-02-21T13:08:03;0.50;99.90
9437;DHT22;4757;59.334;18.034;2023-02-21T13:13:18;0.30;99.90
9437;DHT22;4757;59.334;18.034;2023-02-21T13:15:49;0.40;99.90
9437;DHT22;4757;59.334;18.034;2023-02-21T13:18:30;0.40;99.90
9437;DHT22;4757;59.334;18.034;2023-02-21T13:24:29;0.50;99.90
9437;DHT22;4757;59.334;18.034;2023-02-21T13:29:41;0.50;99.90
9437;DHT22;4757;59.334;18.034;2023-02-21T13:32:12;0.40;99.90
9437;DHT22;4757;59.334;18.034;2023-02-21T13:35:00;0.30;99.90
9437;DHT22;4757;59.334;18.034;2023-02-21T13:37:31;0.40;99.90
9437;DHT22;4757;59.334;18.034;2023-02-21T13:40:51;0.40;99.90
9437;DHT22;4757;59.334;18.034;2023-02-21T13:43:02;0.50;99.90
9437;DHT22;4757;59.334;18.034;2023-02-21T13:45:30;0.40;99.90
9437;DHT22;4757;59.334;18.034;2023-02-21T13:58:39;0.20;99.90
9437;DHT22;4757;59.334;18.034;2023-02-21T14:03:56;0.10;99.90
9437;DHT22;4757;59.334;18.034;2023-02-21T14:06:27;0.20;99.90
9437;DHT22;4757;59.334;18.034;2023-02-21T14:09:10;0.20;99.90
9437;DHT22;4757;59.334;18.034;2023-02-21T14:11:45;0.40;99.90
9437;DHT22;4757;59.334;18.034;2023-02-21T14:14:25;0.00;99.90
9437;DHT22;4757;59.334;18.034;2023-02-21T14:17:06;0.10;99.90
9437;DHT22;4757;59.334;18.034;2023-02-21T14:22:32;0.20;99.90
9437;DHT22;4757;59.334;18.034;2023-02-21T14:27:39;0.20;99.90
9437;DHT22;4757;59.334;18.034;2023-02-21T14:32:40;0.10;99.90
9437;DHT22;4757;59.334;18.034;2023-02-21T14:35:28;0.00;99.90
9437;DHT22;4757;59.334;18.034;2023-02-21T14:58:26;-0.10;99.90
9437;DHT22;4757;59.334;18.034;2023-02-21T15:00:52;0.00;99.90
9437;DHT22;4757;59.334;18.034;2023-02-21T15:06:35;-0.20;99.90
9437;DHT22;4757;59.334;18.034;2023-02-21T15:09:17;-0.40;99.90
9437;DHT22;4757;59.334;18.034;2023-02-21T15:11:48;-0.40;99.90
9437;DHT22;4757;59.334;18.034;2023-02-21T15:14:27;-0.30;99.90
9437;DHT22;4757;59.334;18.034;2023-02-21T15:16:56;-0.40;99.90
9437;DHT22;4757;59.334;18.034;2023-02-21T15:19:33;-0.60;99.90
9437;DHT22;4757;59.334;18.034;2023-02-21T15:27:24;-0.80;99.90
9437;DHT22;4757;59.334;18.034;2023-02-21T15:30:21;-1.00;99.90
9437;DHT22;4757;59.334;18.034;2023-02-21T15:35:53;-0.80;99.90
9437;DHT22;4757;59.334;18.034;2023-02-21T15:41:34;-1.10;99.90
9437;DHT22;4757;59.334;18.034;2023-02-21T15:44:27;-1.10;99.90
9437;DHT22;4757;59.334;18.034;2023-02-21T15:47:03;-1.00;99.90
9437;DHT22;4757;59.334;18.034;2023-02-21T15:50:40;-1.00;99.90
9437;DHT22;4757;59.334;18.034;2023-02-21T15:53:19;-0.90;99.90
9437;DHT22;4757;59.334;18.034;2023-02-21T15:55:48;-0.90;99.90
9437;DHT22;4757;59.334;18.034;2023-02-21T15:58:25;-1.00;99.90
9437;DHT22;4757;59.334;18.034;2023-02-21T16:01:06;-1.10;99.90
9437;DHT22;4757;59.334;18.034;2023-02-21T16:03:42;-1.20;99.90
9437;DHT22;4757;59.334;18.034;2023-02-21T16:06:30;-1.10;99.90
9437;DHT22;4757;59.334;18.034;2023-02-21T16:09:31;-1.00;99.90
9437;DHT22;4757;59.334;18.034;2023-02-21T16:14:56;-1.20;99.90
9437;DHT22;4757;59.334;18.034;2023-02-21T16:17:39;-1.10;99.90
9437;DHT22;4757;59.334;18.034;2023-02-21T16:23:29;-1.20;99.90
9437;DHT22;4757;59.334;18.034;2023-02-21T16:28:46;-1.40;99.90
9437;DHT22;4757;59.334;18.034;2023-02-21T16:31:26;-1.30;99.90
9437;DHT22;4757;59.334;18.034;2023-02-21T16:33:54;-1.30;99.90
9437;DHT22;4757;59.334;18.034;2023-02-21T16:36:26;-1.40;99.90
9437;DHT22;4757;59.334;18.034;2023-02-21T16:38:57;-1.30;99.90
9437;DHT22;4757;59.334;18.034;2023-02-21T16:41:25;-1.30;99.90
9437;DHT22;4757;59.334;18.034;2023-02-21T16:43:56;-1.40;99.90
9437;DHT22;4757;59.334;18.034;2023-02-21T16:46:25;-1.30;99.90
9437;DHT22;4757;59.334;18.034;2023-02-21T16:48:56;-1.20;99.90
9437;DHT22;4757;59.334;18.034;2023-02-21T16:51:26;-1.10;99.90
9437;DHT22;4757;59.334;18.034;2023-02-21T16:53:59;-1.20;99.90
9437;DHT22;4757;59.334;18.034;2023-02-21T16:56:27;-1.10;99.90
9437;DHT22;4757;59.334;18.034;2023-02-21T16:58:55;-1.10;99.90
9437;DHT22;4757;59.334;18.034;2023-02-21T17:01:31;-1.00;99.90
9437;DHT22;4757;59.334;18.034;2023-02-21T17:04:02;-0.90;99.90
9437;DHT22;4757;59.334;18.034;2023-02-21T17:06:32;-1.10;99.90
9437;DHT22;4757;59.334;18.034;2023-02-21T17:09:00;-1.10;99.90
9437;DHT22;4757;59.334;18.034;2023-02-21T17:11:28;-1.00;99.90
9437;DHT22;4757;59.334;18.034;2023-02-21T17:13:55;-1.10;99.90
9437;DHT22;4757;59.334;18.034;2023-02-21T17:16:22;-1.10;99.90
9437;DHT22;4757;59.334;18.034;2023-02-21T17:18:49;-1.10;99.90
9437;DHT22;4757;59.334;18.034;2023-02-21T17:21:16;-1.00;99.90
9437;DHT22;4757;59.334;18.034;2023-02-21T17:23:44;-1.00;99.90
9437;DHT22;4757;59.334;18.034;2023-02-21T17:26:11;-1.10;99.90
9437;DHT22;4757;59.334;18.034;2023-02-21T17:28:38;-1.00;99.90
9437;DHT22;4757;59.334;18.034;2023-02-21T17:31:06;-1.00;99.90
9437;DHT22;4757;59.334;18.034;2023-02-21T17:33:33;-1.10;99.90
9437;DHT22;4757;59.334;18.034;2023-02-21T17:36:01;-1.00;99.90
9437;DHT22;4757;59.334;18.034;2023-02-21T17:38:28;-0.80;99.90
9437;DHT22;4757;59.334;18.034;2023-02-21T17:40:55;-0.90;99.90
9437;DHT22;4757;59.334;18.034;2023-02-21T17:43:23;-1.10;99.90
9437;DHT22;4757;59.334;18.034;2023-02-21T17:45:51;-1.10;99.90
9437;DHT22;4757;59.334;18.034;2023-02-21T17:48:18;-1.10;99.90
9437;DHT22;4757;59.334;18.034;2023-02-21T17:50:46;-1.00;99.90
9437;DHT22;4757;59.334;18.034;2023-02-21T17:53:13;-1.00;99.90
9437;DHT22;4757;59.334;18.034;2023-02-21T17:55:40;-1.00;99.90
9437;DHT22;4757;59.334;18.034;2023-02-21T17:58:08;-1.00;99.90
9437;DHT22;4757;59.334;18.034;2023-02-21T18:00:36;-1.00;99.90
9437;DHT22;4757;59.334;18.034;2023-02-21T18:03:05;-1.00;99.90
9437;DHT22;4757;59.334;18.034;2023-02-21T18:05:32;-1.00;99.90
9437;DHT22;4757;59.334;18.034;2023-02-21T18:08:01;-0.90;99.90
9437;DHT22;4757;59.334;18.034;2023-02-21T18:10:30;-1.10;99.90
9437;DHT22;4757;59.334;18.034;2023-02-21T18:12:57;-1.30;99.90
9437;DHT22;4757;59.334;18.034;2023-02-21T18:15:26;-1.20;99.90
9437;DHT22;4757;59.334;18.034;2023-02-21T18:17:56;-1.10;99.90
9437;DHT22;4757;59.334;18.034;2023-02-21T18:20:32;-1.00;99.90
9437;DHT22;4757;59.334;18.034;2023-02-21T18:23:00;-1.10;99.90
9437;DHT22;4757;59.334;18.034;2023-02-21T18:25:34;-1.10;99.90
9437;DHT22;4757;59.334;18.034;2023-02-21T18:28:03;-1.10;99.90
9437;DHT22;4757;59.334;18.034;2023-02-21T18:30:31;-1.10;99.90
9437;DHT22;4757;59.334;18.034;2023-02-21T18:32:58;-1.20;99.90
9437;DHT22;4757;59.334;18.034;2023-02-21T18:35:25;-1.20;99.90
9437;DHT22;4757;59.334;18.034;2023-02-21T18:37:53;-1.30;99.90
9437;DHT22;4757;59.334;18.034;2023-02-21T18:40:20;-1.30;99.90
9437;DHT22;4757;59.334;18.034;2023-02-21T18:43:05;-1.20;99.90
9437;DHT22;4757;59.334;18.034;2023-02-21T18:45:32;-1.20;99.90
9437;DHT22;4757;59.334;18.034;2023-02-21T18:48:00;-1.30;99.90
9437;DHT22;4757;59.334;18.034;2023-02-21T18:50:27;-1.20;99.90
9437;DHT22;4757;59.334;18.034;2023-02-21T18:52:55;-1.20;99.90
9437;DHT22;4757;59.334;18.034;2023-02-21T18:55:22;-1.30;99.90
9437;DHT22;4757;59.334;18.034;2023-02-21T18:57:49;-1.30;99.90
9437;DHT22;4757;59.334;18.034;2023-02-21T19:00:19;-1.20;99.90
9437;DHT22;4757;59.334;18.034;2023-02-21T19:02:46;-1.10;99.90
9437;DHT22;4757;59.334;18.034;2023-02-21T19:05:23;-1.00;99.90
9437;DHT22;4757;59.334;18.034;2023-02-21T19:07:51;-1.10;99.90
9437;DHT22;4757;59.334;18.034;2023-02-21T19:10:22;-1.20;99.90
9437;DHT22;4757;59.334;18.034;2023-02-21T19:12:49;-1.30;99.90
9437;DHT22;4757;59.334;18.034;2023-02-21T19:15:18;-1.30;99.90
9437;DHT22;4757;59.334;18.034;2023-02-21T19:17:46;-1.30;99.90
9437;DHT22;4757;59.334;18.034;2023-02-21T19:20:17;-1.30;99.90
9437;DHT22;4757;59.334;18.034;2023-02-21T19:22:46;-1.30;99.90
9437;DHT22;4757;59.334;18.034;2023-02-21T19:25:27;-1.20;99.90
9437;DHT22;4757;59.334;18.034;2023-02-21T19:27:56;-1.00;99.90
9437;DHT22;4757;59.334;18.034;2023-02-21T19:30:31;-1.10;99.90
9437;DHT22;4757;59.334;18.034;2023-02-21T19:33:02;-1.10;99.90
9437;DHT22;4757;59.334;18.034;2023-02-21T19:35:31;-1.10;99.90
9437;DHT22;4757;59.334;18.034;2023-02-21T19:38:02;-1.10;99.90
9437;DHT22;4757;59.334;18.034;2023-02-21T19:40:32;-1.10;99.90
9437;DHT22;4757;59.334;18.034;2023-02-21T19:43:00;-1.10;99.90
9437;DHT22;4757;59.334;18.034;2023-02-21T19:45:27;-1.20;99.90
9437;DHT22;4757;59.334;18.034;2023-02-21T19:47:54;-1.20;99.90
9437;DHT22;4757;59.334;18.034;2023-02-21T19:50:21;-1.20;99.90
9437;DHT22;4757;59.334;18.034;2023-02-21T19:52:53;-1.20;99.90
9437;DHT22;4757;59.334;18.034;2023-02-21T19:55:23;-1.30;99.90
9437;DHT22;4757;59.334;18.034;2023-02-21T19:57:50;-1.30;99.90
9437;DHT22;4757;59.334;18.034;2023-02-21T20:00:23;-1.20;99.90
9437;DHT22;4757;59.334;18.034;2023-02-21T20:02:53;-1.20;99.90
9437;DHT22;4757;59.334;18.034;2023-02-21T20:05:20;-1.20;99.90
9437;DHT22;4757;59.334;18.034;2023-02-21T20:07:47;-1.20;99.90
9437;DHT22;4757;59.334;18.034;2023-02-21T20:10:16;-1.10;99.90
9437;DHT22;4757;59.334;18.034;2023-02-21T20:12:55;-1.30;99.90
9437;DHT22;4757;59.334;18.034;2023-02-21T20:15:23;-1.20;99.90
9437;DHT22;4757;59.334;18.034;2023-02-21T20:17:56;-1.20;99.90
9437;DHT22;4757;59.334;18.034;2023-02-21T20:20:35;-1.30;99.90
9437;DHT22;4757;59.334;18.034;2023-02-21T20:23:04;-1.20;99.90